Pagrindinis puslapis
METAR-TAF:

METAR-TAF

Oro uostai :

Brunėjus, Brunėjus

platuma: 04-56N, ilguma: 114-56E, Aukštis: 22 m

Dabartinis oras

Ataskaita buvo paskelbta 29 minutes, ne 06:00 UTC
Vėjas 7 kt iš Šiaurės
Temperatūra 32°C
Drėgmė 67%
Slėgis 1010 hPa
Matomumas 10 km arba daugiau
Mažai debesys ne aukštis 1600 ft
Mažai debesys ne aukštis 1700 ft, Liūtiniai kamuoliniai debesys.
Su prošvaistėmis ne aukštis 30000 ft

METAR: WBSB 100600Z 01007KT 9999 FEW016 FEW017CB BKN300 32/25 Q1010 NOSIG

Laikas: 14:29 (06:29 UTC)

Prognozė

Ataskaita buvo paskelbta 1 valandą ir 39 minutes, ne 04:50 UTC
Prognozė galioja nuo 10 metu 06 UTC su 11 metu 12 UTC
Vėjas 8 kt iš Šiaurės
Matomumas 10 km arba daugiau
Mažai debesys ne aukštis 1600 ft
Mažai debesys ne aukštis 1700 ft, Liūtiniai kamuoliniai debesys.
Tapsmas
nuo 10 metu 13 UTC su 10 metu 15 UTC
Vėjas 3 kt iš Pietų/Pietvakarių
Mažai debesys ne aukštis 1500 ft

TAF: WBSB 100450Z 1006/1112 35008KT 9999 FEW016 FEW017CB BECMG 1013/1015 20003KT FEW015

Orai ataskaitas ir orų prognozės (METAR, TAF).

turimą stotys yra geltonos ir raudonos taškus žemėlapyje.

Perkelti pele per norėdami pamatyti stoties vardą.

Tada spustelėkite, norėdami matyti oro stebėjimo ir prognozės.

Norėdami pakeisti žemėlapį: spustelėkite ant žalios mygtukų su juodo kryžiaus žemyn,; žalią mygtuką su brūkšneliu, jei norite nutolinti; arba žalių rodyklių gretimoms žemėlapius.


METAR-TAF: